createdAt,value
2018-12-06T00:00:42.185Z,5.00
2018-12-06T00:03:11.161Z,3.00
2018-12-06T00:05:40.019Z,8.73
2018-12-06T00:08:16.538Z,4.20
2018-12-06T00:10:45.541Z,3.13
2018-12-06T00:13:14.493Z,2.90
2018-12-06T00:15:43.399Z,3.43
2018-12-06T00:18:12.225Z,4.27
2018-12-06T00:20:41.163Z,5.33
2018-12-06T00:23:10.057Z,4.67
2018-12-06T00:25:39.131Z,3.70
2018-12-06T00:28:08.027Z,2.70
2018-12-06T00:30:41.330Z,4.70
2018-12-06T00:33:10.386Z,3.87
2018-12-06T00:35:39.782Z,3.70
2018-12-06T00:38:08.744Z,2.73
2018-12-06T00:41:07.036Z,4.67
2018-12-06T00:43:35.956Z,3.90
2018-12-06T00:46:04.780Z,4.53
2018-12-06T00:48:33.658Z,4.10
2018-12-06T00:51:02.532Z,2.57
2018-12-06T00:53:31.363Z,5.13
2018-12-06T00:56:00.195Z,4.40
2018-12-06T00:58:29.051Z,5.73
2018-12-06T01:00:57.996Z,3.90
2018-12-06T01:03:26.891Z,3.33
2018-12-06T01:05:55.816Z,2.93
2018-12-06T01:08:24.673Z,3.00
2018-12-06T01:10:53.558Z,3.57
2018-12-06T01:13:22.468Z,3.90
2018-12-06T01:15:51.350Z,4.23
2018-12-06T01:18:20.238Z,4.67
2018-12-06T01:20:49.142Z,3.37
2018-12-06T01:23:18.026Z,4.70
2018-12-06T01:25:46.926Z,2.90
2018-12-06T01:28:15.826Z,4.00
2018-12-06T01:30:44.688Z,3.83
2018-12-06T01:33:13.628Z,2.80
2018-12-06T01:35:42.470Z,5.00
2018-12-06T01:38:11.357Z,4.17
2018-12-06T01:40:40.246Z,4.70
2018-12-06T01:43:09.160Z,2.87
2018-12-06T01:45:37.983Z,5.73
2018-12-06T01:48:06.900Z,5.00
2018-12-06T01:50:35.819Z,3.23
2018-12-06T01:53:04.667Z,5.17
2018-12-06T01:55:33.491Z,3.50
2018-12-06T01:58:02.351Z,3.75
2018-12-06T02:00:31.272Z,6.03
2018-12-06T02:03:00.159Z,4.13
2018-12-06T02:05:29.060Z,3.07
2018-12-06T02:07:57.880Z,3.43
2018-12-06T02:10:26.712Z,7.53
2018-12-06T02:12:55.576Z,4.30
2018-12-06T02:15:24.509Z,4.37
2018-12-06T02:17:53.335Z,4.57
2018-12-06T02:20:22.276Z,5.57
2018-12-06T02:22:51.178Z,6.80
2018-12-06T02:25:20.071Z,4.10
2018-12-06T02:27:49.483Z,3.73
2018-12-06T02:30:18.365Z,3.23
2018-12-06T02:32:47.515Z,4.53
2018-12-06T02:35:16.717Z,4.93
2018-12-06T02:37:45.731Z,8.83
2018-12-06T02:40:14.566Z,4.83
2018-12-06T02:42:43.543Z,2.70
2018-12-06T02:45:12.933Z,2.30
2018-12-06T02:47:41.948Z,6.17
2018-12-06T02:50:10.919Z,5.10
2018-12-06T02:52:39.904Z,3.50
2018-12-06T02:55:08.794Z,2.67
2018-12-06T02:57:37.702Z,2.60
2018-12-06T03:00:06.877Z,3.20
2018-12-06T03:02:37.752Z,2.80
2018-12-06T03:05:06.862Z,2.23
2018-12-06T03:07:35.707Z,3.67
2018-12-06T03:10:05.013Z,8.17
2018-12-06T03:12:33.844Z,3.23
2018-12-06T03:15:02.761Z,2.60
2018-12-06T03:17:33.740Z,7.57
2018-12-06T03:20:02.614Z,2.93
2018-12-06T03:22:31.450Z,2.50
2018-12-06T03:25:00.424Z,7.10
2018-12-06T03:27:29.520Z,6.07
2018-12-06T03:29:58.400Z,2.17
2018-12-06T03:32:27.233Z,4.43
2018-12-06T03:34:56.297Z,3.67
2018-12-06T03:37:25.135Z,3.03
2018-12-06T03:39:54.144Z,4.60
2018-12-06T03:42:23.037Z,3.20
2018-12-06T03:44:51.943Z,4.23
2018-12-06T03:47:20.846Z,3.33
2018-12-06T03:49:49.715Z,2.77
2018-12-06T03:52:19.693Z,2.50
2018-12-06T03:54:48.647Z,3.90
2018-12-06T03:57:17.511Z,3.40
2018-12-06T03:59:46.379Z,2.10
2018-12-06T04:02:15.220Z,2.90
2018-12-06T04:04:44.053Z,5.33
2018-12-06T04:07:12.963Z,2.93
2018-12-06T04:09:41.867Z,2.70
2018-12-06T04:12:10.760Z,2.27
2018-12-06T04:14:39.579Z,1.93
2018-12-06T04:17:08.411Z,6.07
2018-12-06T04:19:37.313Z,2.80
2018-12-06T04:22:06.199Z,2.37
2018-12-06T04:24:35.364Z,3.17
2018-12-06T04:27:04.303Z,7.27
2018-12-06T04:29:33.136Z,3.83
2018-12-06T04:32:02.104Z,3.73
2018-12-06T04:34:30.933Z,3.83
2018-12-06T04:36:59.755Z,2.67
2018-12-06T04:39:28.653Z,7.50
2018-12-06T04:41:57.536Z,3.50
2018-12-06T04:44:26.367Z,4.50
2018-12-06T04:46:55.219Z,5.03
2018-12-06T04:49:24.048Z,47.13
2018-12-06T04:51:52.955Z,8.80
2018-12-06T04:54:21.790Z,6.73
2018-12-06T04:56:50.659Z,4.90
2018-12-06T04:59:19.460Z,4.63
2018-12-06T05:01:48.291Z,6.90
2018-12-06T05:04:18.378Z,11.20
2018-12-06T05:06:48.398Z,11.63
2018-12-06T05:09:17.294Z,14.73
2018-12-06T05:11:46.166Z,9.37
2018-12-06T05:14:15.002Z,12.30
2018-12-06T05:16:43.958Z,9.97
2018-12-06T05:19:12.982Z,14.43
2018-12-06T05:21:41.844Z,10.50
2018-12-06T05:24:10.726Z,6.90
2018-12-06T05:26:39.564Z,5.20
2018-12-06T05:29:08.408Z,5.90
2018-12-06T05:31:37.295Z,4.53
2018-12-06T05:34:06.230Z,4.07
2018-12-06T05:36:35.287Z,6.13
2018-12-06T05:39:07.581Z,5.23
2018-12-06T05:41:36.471Z,7.70
2018-12-06T05:44:05.378Z,5.05
2018-12-06T05:46:34.223Z,6.47
2018-12-06T05:49:03.071Z,4.43
2018-12-06T05:51:31.902Z,6.83
2018-12-06T05:54:00.842Z,6.60
2018-12-06T05:56:29.716Z,5.47
2018-12-06T05:58:58.548Z,6.03
2018-12-06T06:01:27.468Z,8.30
2018-12-06T06:03:56.305Z,5.17
2018-12-06T06:06:25.353Z,6.13
2018-12-06T06:08:54.228Z,5.23
2018-12-06T06:11:23.128Z,7.73
2018-12-06T06:13:52.016Z,6.30
2018-12-06T06:16:20.904Z,5.77
2018-12-06T06:18:49.791Z,7.63
2018-12-06T06:21:18.610Z,6.97
2018-12-06T06:23:47.581Z,5.60
2018-12-06T06:26:16.422Z,6.30
2018-12-06T06:28:45.308Z,10.90
2018-12-06T06:31:14.344Z,9.30
2018-12-06T06:33:43.244Z,7.83
2018-12-06T06:36:12.126Z,5.97
2018-12-06T06:38:41.106Z,5.27
2018-12-06T06:41:10.014Z,5.90
2018-12-06T06:43:38.991Z,4.00
2018-12-06T06:46:07.790Z,6.27
2018-12-06T06:48:36.692Z,5.83
2018-12-06T06:51:05.564Z,4.27
2018-12-06T06:53:34.454Z,5.63
2018-12-06T06:56:03.296Z,3.77
2018-12-06T06:58:32.136Z,4.60
2018-12-06T07:01:00.962Z,5.30
2018-12-06T07:03:29.928Z,4.40
2018-12-06T07:05:58.743Z,4.50
2018-12-06T07:08:27.574Z,4.90
2018-12-06T07:10:56.413Z,4.23
2018-12-06T07:13:25.246Z,4.08
2018-12-06T07:15:54.096Z,4.87
2018-12-06T07:18:22.968Z,5.10
2018-12-06T07:20:52.013Z,5.03
2018-12-06T07:23:20.901Z,5.87
2018-12-06T07:25:49.746Z,6.80
2018-12-06T07:28:18.585Z,5.30
2018-12-06T07:30:47.475Z,8.60
2018-12-06T07:33:16.259Z,5.45
2018-12-06T07:35:45.095Z,4.87
2018-12-06T07:38:13.923Z,7.30
2018-12-06T07:40:42.869Z,5.63
2018-12-06T07:43:11.692Z,7.10
2018-12-06T07:45:40.519Z,4.50
2018-12-06T07:48:09.449Z,5.20
2018-12-06T07:50:38.287Z,7.57
2018-12-06T07:53:07.126Z,9.73
2018-12-06T07:55:36.010Z,10.70
2018-12-06T07:58:04.864Z,8.40
2018-12-06T08:00:33.738Z,5.17
2018-12-06T08:03:02.585Z,5.57
2018-12-06T08:05:31.459Z,5.60
2018-12-06T08:08:00.342Z,10.00
2018-12-06T08:10:30.242Z,7.50
2018-12-06T08:12:59.082Z,8.60
2018-12-06T08:15:27.911Z,8.27
2018-12-06T08:17:56.815Z,5.03
2018-12-06T08:20:25.824Z,6.73
2018-12-06T08:22:54.704Z,9.50
2018-12-06T08:25:23.540Z,7.50
2018-12-06T08:27:52.471Z,7.23
2018-12-06T08:30:21.379Z,7.75
2018-12-06T08:32:50.248Z,6.80
2018-12-06T08:35:19.064Z,6.50
2018-12-06T08:37:47.907Z,6.80
2018-12-06T08:40:16.753Z,8.53
2018-12-06T08:42:46.086Z,12.80
2018-12-06T08:45:15.027Z,12.67
2018-12-06T08:47:43.939Z,8.47
2018-12-06T08:50:12.942Z,7.67
2018-12-06T08:52:41.803Z,5.97
2018-12-06T08:55:10.683Z,7.60
2018-12-06T08:57:39.548Z,6.90
2018-12-06T09:00:11.027Z,4.57
2018-12-06T09:02:40.575Z,5.53
2018-12-06T09:05:10.614Z,6.23
2018-12-06T09:07:39.645Z,8.00
2018-12-06T09:10:09.046Z,8.50
2018-12-06T09:12:37.886Z,6.93
2018-12-06T09:15:08.166Z,8.70
2018-12-06T09:17:36.985Z,8.60
2018-12-06T09:20:06.170Z,6.53
2018-12-06T09:22:35.148Z,5.60
2018-12-06T09:25:04.367Z,6.37
2018-12-06T09:27:33.329Z,6.40
2018-12-06T09:30:02.205Z,6.53
2018-12-06T09:32:31.215Z,9.10
2018-12-06T09:35:00.203Z,8.80
2018-12-06T09:37:29.144Z,8.93
2018-12-06T09:40:00.039Z,6.87
2018-12-06T09:42:29.035Z,7.97
2018-12-06T09:44:57.933Z,9.93
2018-12-06T09:47:26.767Z,5.90
2018-12-06T09:49:55.608Z,6.03
2018-12-06T09:52:24.699Z,7.47
2018-12-06T09:54:53.599Z,5.90
2018-12-06T09:57:22.535Z,5.90
2018-12-06T09:59:51.495Z,9.40
2018-12-06T10:02:20.973Z,7.93
2018-12-06T10:04:49.807Z,28.50
2018-12-06T10:07:19.024Z,30.40
2018-12-06T10:09:47.943Z,7.77
2018-12-06T10:12:16.884Z,7.93
2018-12-06T10:14:45.757Z,8.87
2018-12-06T10:17:14.633Z,7.67
2018-12-06T10:19:43.472Z,6.77
2018-12-06T10:22:12.509Z,6.27
2018-12-06T10:24:41.495Z,5.90
2018-12-06T10:27:11.096Z,7.93
2018-12-06T10:29:40.190Z,9.53
2018-12-06T10:32:09.172Z,9.13
2018-12-06T10:34:38.219Z,6.17
2018-12-06T10:37:08.144Z,10.57
2018-12-06T10:39:37.016Z,8.20
2018-12-06T10:42:05.825Z,22.27
2018-12-06T10:44:34.700Z,20.73
2018-12-06T10:47:03.600Z,11.13
2018-12-06T10:49:32.487Z,10.58
2018-12-06T10:52:01.490Z,9.73
2018-12-06T10:54:30.412Z,9.20
2018-12-06T10:56:59.259Z,9.67
2018-12-06T10:59:28.095Z,10.23
2018-12-06T11:02:02.508Z,9.90
2018-12-06T11:04:34.632Z,7.20
2018-12-06T11:07:05.674Z,13.93
2018-12-06T11:09:34.855Z,9.40
2018-12-06T11:12:03.755Z,11.50
2018-12-06T11:14:32.755Z,13.23
2018-12-06T11:17:01.630Z,16.87
2018-12-06T11:19:30.527Z,8.37
2018-12-06T11:21:59.359Z,8.60
2018-12-06T11:24:28.210Z,8.37
2018-12-06T11:26:57.086Z,10.90
2018-12-06T11:29:25.899Z,12.90
2018-12-06T11:31:54.810Z,8.63
2018-12-06T11:34:23.667Z,11.10
2018-12-06T11:36:52.579Z,8.53
2018-12-06T11:39:21.403Z,11.43
2018-12-06T11:41:50.260Z,9.20
2018-12-06T11:44:19.100Z,9.70
2018-12-06T11:46:48.058Z,8.93
2018-12-06T11:49:16.963Z,9.60
2018-12-06T11:51:45.891Z,6.30
2018-12-06T11:54:14.737Z,8.43
2018-12-06T11:56:43.602Z,8.10
2018-12-06T11:59:12.458Z,8.30
2018-12-06T12:01:41.360Z,12.13
2018-12-06T12:04:10.239Z,13.00
2018-12-06T12:06:39.118Z,24.50
2018-12-06T12:09:08.881Z,11.70
2018-12-06T12:11:37.788Z,9.53
2018-12-06T12:14:08.592Z,10.53
2018-12-06T12:16:37.662Z,12.03
2018-12-06T12:19:06.500Z,10.72
2018-12-06T12:21:35.469Z,12.10
2018-12-06T12:24:04.335Z,9.00
2018-12-06T12:26:33.196Z,8.90
2018-12-06T12:29:02.051Z,10.93
2018-12-06T12:31:31.023Z,10.40
2018-12-06T12:33:59.879Z,10.73
2018-12-06T12:36:28.747Z,9.07
2018-12-06T12:38:57.637Z,11.87
2018-12-06T12:41:26.559Z,10.87
2018-12-06T12:43:55.451Z,10.63
2018-12-06T12:46:26.369Z,11.13
2018-12-06T12:48:55.220Z,12.30
2018-12-06T12:51:24.072Z,12.50
2018-12-06T12:53:53.007Z,10.57
2018-12-06T12:56:21.868Z,10.33
2018-12-06T12:58:50.837Z,17.67
2018-12-06T13:01:20.024Z,37.47
2018-12-06T13:03:49.036Z,63.30
2018-12-06T13:06:18.254Z,18.00
2018-12-06T13:08:47.154Z,20.50
2018-12-06T13:11:16.024Z,16.80
2018-12-06T13:13:44.868Z,15.33
2018-12-06T13:16:13.900Z,12.80
2018-12-06T13:18:42.822Z,14.27
2018-12-06T13:21:12.053Z,14.77
2018-12-06T13:23:40.887Z,16.10
2018-12-06T13:26:10.785Z,14.43
2018-12-06T13:28:39.665Z,12.27
2018-12-06T13:31:08.692Z,11.77
2018-12-06T13:33:37.757Z,11.03
2018-12-06T13:36:08.309Z,12.43
2018-12-06T13:38:37.406Z,13.30
2018-12-06T13:41:06.620Z,9.43
2018-12-06T13:43:35.573Z,19.30
2018-12-06T13:46:04.747Z,10.43
2018-12-06T13:48:34.063Z,12.23
2018-12-06T13:51:03.204Z,12.27
2018-12-06T13:53:32.242Z,10.50
2018-12-06T13:56:01.790Z,14.80
2018-12-06T13:58:30.761Z,12.13
2018-12-06T14:00:59.943Z,13.00
2018-12-06T14:03:29.385Z,13.47
2018-12-06T14:05:58.524Z,10.50
2018-12-06T14:08:27.782Z,12.98
2018-12-06T14:10:56.886Z,13.03
2018-12-06T14:13:26.229Z,18.43
2018-12-06T14:15:55.296Z,33.37
2018-12-06T14:18:30.635Z,23.90
2018-12-06T14:20:59.648Z,17.17
2018-12-06T14:23:28.835Z,15.15
2018-12-06T14:25:57.715Z,12.27
2018-12-06T14:28:27.030Z,13.60
2018-12-06T14:30:56.157Z,14.23
2018-12-06T14:33:25.436Z,11.87
2018-12-06T14:35:54.480Z,14.10
2018-12-06T14:38:23.965Z,14.90
2018-12-06T14:40:53.117Z,14.80
2018-12-06T14:43:22.331Z,14.03
2018-12-06T14:45:51.683Z,13.40
2018-12-06T14:48:21.253Z,20.00
2018-12-06T14:50:51.377Z,17.20
2018-12-06T14:53:20.509Z,19.33
2018-12-06T14:55:49.763Z,13.30
2018-12-06T14:58:18.733Z,16.37
2018-12-06T15:00:48.543Z,12.97
2018-12-06T15:03:17.638Z,12.43
2018-12-06T15:05:47.411Z,13.60
2018-12-06T15:08:16.543Z,14.97
2018-12-06T15:10:45.367Z,16.10
2018-12-06T15:13:14.274Z,15.57
2018-12-06T15:15:43.209Z,20.60
2018-12-06T15:18:12.509Z,42.73
2018-12-06T15:20:42.561Z,46.30
2018-12-06T15:23:12.582Z,51.57
2018-12-06T15:25:42.059Z,36.53
2018-12-06T15:28:11.110Z,17.37
2018-12-06T15:30:40.122Z,16.50
2018-12-06T15:33:08.964Z,23.87
2018-12-06T15:35:37.887Z,23.63
2018-12-06T15:38:06.745Z,19.30
2018-12-06T15:40:35.631Z,16.77
2018-12-06T15:43:04.528Z,80.77
2018-12-06T15:45:33.411Z,33.92
2018-12-06T15:48:02.301Z,24.93
2018-12-06T15:50:31.230Z,24.43
2018-12-06T15:53:00.194Z,20.50
2018-12-06T15:55:29.105Z,24.20
2018-12-06T15:57:57.991Z,19.03
2018-12-06T16:00:26.913Z,18.33
2018-12-06T16:02:56.003Z,29.87
2018-12-06T16:05:24.858Z,23.10
2018-12-06T16:07:53.746Z,25.00
2018-12-06T16:10:22.628Z,21.93
2018-12-06T16:12:54.507Z,20.40
2018-12-06T16:15:23.488Z,18.23
2018-12-06T16:17:52.388Z,20.23
2018-12-06T16:20:21.270Z,20.13
2018-12-06T16:22:50.172Z,19.73
2018-12-06T16:25:19.126Z,25.50
2018-12-06T16:27:48.006Z,23.43
2018-12-06T16:30:16.837Z,53.17
2018-12-06T16:32:45.700Z,24.13
2018-12-06T16:35:15.517Z,21.23
2018-12-06T16:37:44.499Z,21.90
2018-12-06T16:40:13.362Z,19.73
2018-12-06T16:42:42.251Z,26.17
2018-12-06T16:45:11.191Z,29.47
2018-12-06T16:47:40.291Z,21.63
2018-12-06T16:50:09.769Z,20.00
2018-12-06T16:52:38.683Z,23.10
2018-12-06T16:55:08.215Z,18.10
2018-12-06T16:57:37.158Z,17.77
2018-12-06T17:00:10.653Z,19.03
2018-12-06T17:02:39.797Z,17.63
2018-12-06T17:05:08.801Z,16.57
2018-12-06T17:07:37.763Z,21.20
2018-12-06T17:10:07.372Z,38.70
2018-12-06T17:12:36.202Z,31.07
2018-12-06T17:15:06.168Z,19.00
2018-12-06T17:17:35.160Z,21.67
2018-12-06T17:20:04.350Z,18.90
2018-12-06T17:22:33.418Z,29.43
2018-12-06T17:25:02.332Z,18.67
2018-12-06T17:27:31.356Z,19.30
2018-12-06T17:30:00.659Z,16.87
2018-12-06T17:32:29.935Z,18.50
2018-12-06T17:34:58.973Z,21.33
2018-12-06T17:37:27.841Z,30.47
2018-12-06T17:39:56.749Z,18.03
2018-12-06T17:42:25.671Z,18.37
2018-12-06T17:44:54.607Z,18.30
2018-12-06T17:47:23.472Z,18.20
2018-12-06T17:49:52.375Z,18.13
2018-12-06T17:52:21.297Z,16.43
2018-12-06T17:54:50.255Z,20.53
2018-12-06T17:57:19.091Z,19.53
2018-12-06T17:59:47.983Z,17.33
2018-12-06T18:02:16.819Z,30.20
2018-12-06T18:04:45.820Z,65.37
2018-12-06T18:07:14.969Z,23.00
2018-12-06T18:09:44.008Z,20.33
2018-12-06T18:12:12.843Z,18.87
2018-12-06T18:14:41.802Z,22.40
2018-12-06T18:17:10.771Z,21.43
2018-12-06T18:19:39.613Z,19.97
2018-12-06T18:22:09.600Z,20.33
2018-12-06T18:24:38.440Z,20.67
2018-12-06T18:27:07.328Z,18.13
2018-12-06T18:29:36.278Z,19.10
2018-12-06T18:32:05.271Z,22.27
2018-12-06T18:34:34.210Z,20.20
2018-12-06T18:37:03.124Z,22.30
2018-12-06T18:39:31.999Z,23.17
2018-12-06T18:42:00.979Z,23.40
2018-12-06T18:44:29.995Z,27.13
2018-12-06T18:46:58.967Z,24.67
2018-12-06T18:49:29.019Z,41.53
2018-12-06T18:51:57.883Z,32.93
2018-12-06T18:54:26.791Z,34.70
2018-12-06T18:56:55.667Z,24.33
2018-12-06T18:59:24.599Z,27.50
2018-12-06T19:01:53.713Z,26.23
2018-12-06T19:04:22.585Z,22.17
2018-12-06T19:06:51.461Z,23.10
2018-12-06T19:09:20.424Z,19.73
2018-12-06T19:11:49.366Z,20.20
2018-12-06T19:14:21.746Z,17.37
2018-12-06T19:16:49.082Z,21.87
2018-12-06T19:19:17.915Z,19.63
2018-12-06T19:21:46.766Z,19.53
2018-12-06T19:24:15.774Z,20.33
2018-12-06T19:26:44.734Z,20.20
2018-12-06T19:29:13.570Z,27.93
2018-12-06T19:31:42.762Z,47.70
2018-12-06T19:34:12.869Z,25.57
2018-12-06T19:36:41.850Z,20.60
2018-12-06T19:39:10.804Z,21.60
2018-12-06T19:41:39.812Z,18.07
2018-12-06T19:44:08.914Z,20.23
2018-12-06T19:46:37.811Z,18.90
2018-12-06T19:49:06.774Z,21.10
2018-12-06T19:51:35.680Z,18.60
2018-12-06T19:54:04.926Z,21.90
2018-12-06T19:56:33.775Z,17.10
2018-12-06T19:59:02.688Z,18.37
2018-12-06T20:01:31.584Z,18.37
2018-12-06T20:04:00.508Z,19.17
2018-12-06T20:06:30.270Z,19.17
2018-12-06T20:08:59.145Z,19.80
2018-12-06T20:11:27.992Z,17.37
2018-12-06T20:13:56.903Z,15.37
2018-12-06T20:16:25.911Z,16.00
2018-12-06T20:18:54.787Z,17.00
2018-12-06T20:21:23.707Z,24.67
2018-12-06T20:23:52.585Z,22.63
2018-12-06T20:26:21.581Z,20.43
2018-12-06T20:28:50.543Z,18.53
2018-12-06T20:31:19.415Z,18.43
2018-12-06T20:33:48.352Z,15.85
2018-12-06T20:36:17.360Z,15.13
2018-12-06T20:38:46.377Z,15.60
2018-12-06T20:41:15.299Z,16.30
2018-12-06T20:43:44.325Z,19.87
2018-12-06T20:46:13.226Z,15.07
2018-12-06T20:48:42.106Z,19.53
2018-12-06T20:51:10.972Z,16.90
2018-12-06T20:53:39.844Z,17.73
2018-12-06T20:56:08.971Z,32.90
2018-12-06T20:58:37.983Z,34.77
2018-12-06T21:01:07.155Z,20.80
2018-12-06T21:03:36.781Z,15.73
2018-12-06T21:06:05.712Z,15.27
2018-12-06T21:08:35.175Z,18.43
2018-12-06T21:11:04.055Z,19.97
2018-12-06T21:13:32.916Z,16.53
2018-12-06T21:16:01.820Z,18.97
2018-12-06T21:18:30.719Z,19.43
2018-12-06T21:20:59.677Z,18.50
2018-12-06T21:23:28.584Z,19.80
2018-12-06T21:25:57.595Z,17.83
2018-12-06T21:28:26.457Z,17.00
2018-12-06T21:30:55.371Z,19.83
2018-12-06T21:33:24.207Z,34.87
2018-12-06T21:35:53.143Z,25.00
2018-12-06T21:38:22.143Z,20.97
2018-12-06T21:40:51.149Z,21.73
2018-12-06T21:43:20.045Z,19.43
2018-12-06T21:45:48.919Z,18.87
2018-12-06T21:48:18.533Z,21.15
2018-12-06T21:50:47.449Z,18.70
2018-12-06T21:53:16.411Z,17.40
2018-12-06T21:55:45.286Z,18.70
2018-12-06T21:58:14.219Z,20.03
2018-12-06T22:00:43.072Z,18.27
2018-12-06T22:03:12.470Z,17.67
2018-12-06T22:05:41.335Z,20.80
2018-12-06T22:08:10.263Z,23.67
2018-12-06T22:10:39.139Z,17.20
2018-12-06T22:13:08.185Z,18.57
2018-12-06T22:15:37.171Z,17.73
2018-12-06T22:18:06.029Z,16.90
2018-12-06T22:20:34.942Z,19.37
2018-12-06T22:23:03.813Z,17.50
2018-12-06T22:25:32.653Z,19.17
2018-12-06T22:28:01.510Z,33.70
2018-12-06T22:30:30.409Z,20.43
2018-12-06T22:32:59.316Z,22.37
2018-12-06T22:35:28.538Z,16.80
2018-12-06T22:37:57.470Z,22.23
2018-12-06T22:40:26.314Z,19.60
2018-12-06T22:42:55.244Z,20.57
2018-12-06T22:46:27.632Z,18.13
2018-12-06T22:48:56.492Z,19.20
2018-12-06T22:51:25.364Z,20.80
2018-12-06T22:53:54.259Z,20.90
2018-12-06T22:56:23.215Z,21.00
2018-12-06T22:58:52.083Z,18.80
2018-12-06T23:01:25.141Z,15.60
2018-12-06T23:03:54.155Z,21.13
2018-12-06T23:06:22.983Z,22.77
2018-12-06T23:08:52.095Z,21.20
2018-12-06T23:11:22.059Z,16.60
2018-12-06T23:13:50.891Z,21.00
2018-12-06T23:16:19.846Z,20.57
2018-12-06T23:18:48.730Z,22.03
2018-12-06T23:21:18.636Z,27.80
2018-12-06T23:23:47.486Z,22.40
2018-12-06T23:26:16.319Z,21.10
2018-12-06T23:28:45.217Z,22.73
2018-12-06T23:31:14.126Z,22.63
2018-12-06T23:33:43.014Z,26.30
2018-12-06T23:36:11.886Z,24.97
2018-12-06T23:38:40.791Z,21.37
2018-12-06T23:41:09.661Z,18.57
2018-12-06T23:43:38.553Z,23.57
2018-12-06T23:46:07.411Z,25.70
2018-12-06T23:48:36.432Z,22.05
2018-12-06T23:51:16.743Z,22.90
2018-12-06T23:53:45.591Z,21.33
2018-12-06T23:56:14.430Z,21.40
2018-12-06T23:58:43.371Z,25.00
